sensor_id;sensor_type;location;lat;lon;timestamp;pressure;altitude;pressure_sealevel;temperature;humidity
74958;BME280;63741;42.624;26.276;2023-03-03T00:00:56;100086.88;;;5.87;79.88
74958;BME280;63741;42.624;26.276;2023-03-03T00:03:24;100094.31;;;5.96;79.33
74958;BME280;63741;42.624;26.276;2023-03-03T00:05:53;100081.19;;;5.96;79.50
74958;BME280;63741;42.624;26.276;2023-03-03T00:08:20;100076.78;;;5.96;79.42
74958;BME280;63741;42.624;26.276;2023-03-03T00:10:48;100074.41;;;5.92;79.79
74958;BME280;63741;42.624;26.276;2023-03-03T00:13:21;100074.41;;;5.92;79.39
74958;BME280;63741;42.624;26.276;2023-03-03T00:15:48;100071.84;;;5.90;80.22
74958;BME280;63741;42.624;26.276;2023-03-03T00:18:29;100069.16;;;5.92;80.11
74958;BME280;63741;42.624;26.276;2023-03-03T00:20:58;100070.13;;;5.89;79.58
74958;BME280;63741;42.624;26.276;2023-03-03T00:23:30;100058.94;;;5.86;80.83
74958;BME280;63741;42.624;26.276;2023-03-03T00:26:01;100059.34;;;5.78;81.28
74958;BME280;63741;42.624;26.276;2023-03-03T00:28:42;100049.78;;;5.77;80.86
74958;BME280;63741;42.624;26.276;2023-03-03T00:31:18;100047.84;;;5.80;79.80
74958;BME280;63741;42.624;26.276;2023-03-03T00:33:52;100050.13;;;5.87;80.48
74958;BME280;63741;42.624;26.276;2023-03-03T00:36:30;100043.94;;;5.88;80.78
74958;BME280;63741;42.624;26.276;2023-03-03T00:41:55;100032.41;;;5.92;80.15
74958;BME280;63741;42.624;26.276;2023-03-03T00:47:29;100022.09;;;5.87;80.14
74958;BME280;63741;42.624;26.276;2023-03-03T00:52:39;100016.41;;;5.79;81.22
74958;BME280;63741;42.624;26.276;2023-03-03T00:55:07;100015.31;;;5.83;80.40
74958;BME280;63741;42.624;26.276;2023-03-03T00:57:34;100014.72;;;5.78;81.12
74958;BME280;63741;42.624;26.276;2023-03-03T01:00:03;100009.38;;;5.79;80.98
74958;BME280;63741;42.624;26.276;2023-03-03T01:02:31;100005.75;;;5.82;81.72
74958;BME280;63741;42.624;26.276;2023-03-03T01:04:58;100010.31;;;5.78;81.93
74958;BME280;63741;42.624;26.276;2023-03-03T01:07:25;100001.25;;;5.84;81.54
74958;BME280;63741;42.624;26.276;2023-03-03T01:09:53;99998.72;;;5.82;81.86
74958;BME280;63741;42.624;26.276;2023-03-03T01:12:20;99990.00;;;5.82;80.84
74958;BME280;63741;42.624;26.276;2023-03-03T01:14:47;99993.41;;;5.67;81.73
74958;BME280;63741;42.624;26.276;2023-03-03T01:17:16;99996.91;;;5.67;82.16
74958;BME280;63741;42.624;26.276;2023-03-03T01:19:44;99991.00;;;5.62;81.48
74958;BME280;63741;42.624;26.276;2023-03-03T01:22:11;99991.56;;;5.69;81.42
74958;BME280;63741;42.624;26.276;2023-03-03T01:24:38;99990.53;;;5.71;82.35
74958;BME280;63741;42.624;26.276;2023-03-03T01:27:04;99989.41;;;5.77;81.43
74958;BME280;63741;42.624;26.276;2023-03-03T01:29:31;99988.56;;;5.76;81.72
74958;BME280;63741;42.624;26.276;2023-03-03T01:31:58;99975.44;;;5.76;81.28
74958;BME280;63741;42.624;26.276;2023-03-03T01:34:25;99975.59;;;5.73;82.52
74958;BME280;63741;42.624;26.276;2023-03-03T01:36:52;99974.66;;;5.74;81.28
74958;BME280;63741;42.624;26.276;2023-03-03T01:39:20;99979.75;;;5.77;82.78
74958;BME280;63741;42.624;26.276;2023-03-03T01:41:47;99969.16;;;5.79;81.17
74958;BME280;63741;42.624;26.276;2023-03-03T01:44:14;99971.03;;;5.77;82.91
74958;BME280;63741;42.624;26.276;2023-03-03T01:47:04;99966.78;;;5.74;82.26
74958;BME280;63741;42.624;26.276;2023-03-03T01:49:57;99973.09;;;5.70;82.28
74958;BME280;63741;42.624;26.276;2023-03-03T01:55:00;99973.19;;;5.69;81.01
74958;BME280;63741;42.624;26.276;2023-03-03T01:57:34;99969.41;;;5.74;81.74
74958;BME280;63741;42.624;26.276;2023-03-03T02:00:04;99971.19;;;5.74;80.60
74958;BME280;63741;42.624;26.276;2023-03-03T02:02:39;99978.06;;;5.76;81.94
74958;BME280;63741;42.624;26.276;2023-03-03T02:05:08;99979.75;;;5.77;81.98
74958;BME280;63741;42.624;26.276;2023-03-03T02:07:35;99984.22;;;5.75;81.90
74958;BME280;63741;42.624;26.276;2023-03-03T02:10:06;99983.22;;;5.78;81.76
74958;BME280;63741;42.624;26.276;2023-03-03T02:12:37;99979.66;;;5.79;81.11
74958;BME280;63741;42.624;26.276;2023-03-03T02:17:48;99984.75;;;5.82;81.24
74958;BME280;63741;42.624;26.276;2023-03-03T02:20:42;99982.38;;;5.77;82.01
74958;BME280;63741;42.624;26.276;2023-03-03T02:28:30;99979.50;;;5.82;81.39
74958;BME280;63741;42.624;26.276;2023-03-03T02:31:04;99981.53;;;5.77;80.21
74958;BME280;63741;42.624;26.276;2023-03-03T02:33:32;99982.38;;;5.77;81.49
74958;BME280;63741;42.624;26.276;2023-03-03T02:35:59;99978.72;;;5.80;80.38
74958;BME280;63741;42.624;26.276;2023-03-03T02:38:27;99984.06;;;5.78;79.62
74958;BME280;63741;42.624;26.276;2023-03-03T02:41:24;99988.59;;;5.75;80.40
74958;BME280;63741;42.624;26.276;2023-03-03T02:46:32;99982.22;;;5.80;79.27
74958;BME280;63741;42.624;26.276;2023-03-03T02:49:00;99985.69;;;5.81;80.30
74958;BME280;63741;42.624;26.276;2023-03-03T02:51:27;99978.66;;;5.81;80.29
74958;BME280;63741;42.624;26.276;2023-03-03T02:53:54;99974.25;;;5.82;79.50
74958;BME280;63741;42.624;26.276;2023-03-03T02:56:23;99979.41;;;5.83;79.77
74958;BME280;63741;42.624;26.276;2023-03-03T02:58:50;99980.09;;;5.87;79.72
74958;BME280;63741;42.624;26.276;2023-03-03T03:01:18;99965.34;;;5.84;80.71
74958;BME280;63741;42.624;26.276;2023-03-03T03:03:45;99968.31;;;5.78;80.93
74958;BME280;63741;42.624;26.276;2023-03-03T03:06:16;99972.56;;;5.81;79.93
74958;BME280;63741;42.624;26.276;2023-03-03T03:08:43;99970.69;;;5.83;80.83
74958;BME280;63741;42.624;26.276;2023-03-03T03:11:10;99965.09;;;5.89;80.24
74958;BME280;63741;42.624;26.276;2023-03-03T03:13:38;99969.50;;;5.89;80.32
74958;BME280;63741;42.624;26.276;2023-03-03T03:16:06;99961.72;;;5.87;80.49
74958;BME280;63741;42.624;26.276;2023-03-03T03:18:33;99973.84;;;5.90;79.87
74958;BME280;63741;42.624;26.276;2023-03-03T03:21:11;99972.06;;;5.90;79.11
74958;BME280;63741;42.624;26.276;2023-03-03T03:23:40;99970.09;;;5.95;78.77
74958;BME280;63741;42.624;26.276;2023-03-03T03:26:08;99969.16;;;5.96;78.68
74958;BME280;63741;42.624;26.276;2023-03-03T03:28:35;99969.38;;;5.92;79.12
74958;BME280;63741;42.624;26.276;2023-03-03T03:31:04;99959.00;;;5.89;78.74
74958;BME280;63741;42.624;26.276;2023-03-03T03:33:33;99965.03;;;5.91;79.09
74958;BME280;63741;42.624;26.276;2023-03-03T03:36:01;99971.13;;;5.91;78.33
74958;BME280;63741;42.624;26.276;2023-03-03T03:38:28;99961.03;;;5.83;78.88
74958;BME280;63741;42.624;26.276;2023-03-03T03:40:58;99967.06;;;5.86;79.70
74958;BME280;63741;42.624;26.276;2023-03-03T03:43:26;99972.97;;;5.89;79.72
74958;BME280;63741;42.624;26.276;2023-03-03T03:45:52;99965.34;;;5.84;80.06
74958;BME280;63741;42.624;26.276;2023-03-03T03:48:19;99978.44;;;5.69;81.79
74958;BME280;63741;42.624;26.276;2023-03-03T03:50:49;99973.34;;;5.66;80.63
74958;BME280;63741;42.624;26.276;2023-03-03T03:53:17;99970.47;;;5.70;81.73
74958;BME280;63741;42.624;26.276;2023-03-03T03:55:45;99972.03;;;5.74;80.75
74958;BME280;63741;42.624;26.276;2023-03-03T03:58:14;99970.19;;;5.76;80.56
74958;BME280;63741;42.624;26.276;2023-03-03T04:00:47;99973.66;;;5.77;79.19
74958;BME280;63741;42.624;26.276;2023-03-03T04:03:14;99982.38;;;5.77;79.53
74958;BME280;63741;42.624;26.276;2023-03-03T04:05:43;99971.94;;;5.76;79.85
74958;BME280;63741;42.624;26.276;2023-03-03T04:08:11;99976.28;;;5.77;79.47
74958;BME280;63741;42.624;26.276;2023-03-03T04:10:40;99978.13;;;5.75;80.28
74958;BME280;63741;42.624;26.276;2023-03-03T04:13:07;99974.50;;;5.77;79.78
74958;BME280;63741;42.624;26.276;2023-03-03T04:15:35;99974.25;;;5.82;79.67
74958;BME280;63741;42.624;26.276;2023-03-03T04:18:03;99969.94;;;5.81;78.87
74958;BME280;63741;42.624;26.276;2023-03-03T04:20:30;99967.56;;;5.76;78.92
74958;BME280;63741;42.624;26.276;2023-03-03T04:22:57;99972.09;;;5.73;79.26
74958;BME280;63741;42.624;26.276;2023-03-03T04:25:25;99974.66;;;5.74;79.98
74958;BME280;63741;42.624;26.276;2023-03-03T04:27:52;99978.13;;;5.75;80.96
74958;BME280;63741;42.624;26.276;2023-03-03T04:30:21;99976.19;;;5.78;80.72
74958;BME280;63741;42.624;26.276;2023-03-03T04:32:52;99966.69;;;5.76;80.31
74958;BME280;63741;42.624;26.276;2023-03-03T04:35:21;99967.91;;;5.86;78.52
74958;BME280;63741;42.624;26.276;2023-03-03T04:37:48;99964.00;;;5.77;79.85
74958;BME280;63741;42.624;26.276;2023-03-03T04:40:15;99967.38;;;5.79;78.83
74958;BME280;63741;42.624;26.276;2023-03-03T04:42:46;99961.44;;;5.76;79.91
74958;BME280;63741;42.624;26.276;2023-03-03T04:45:13;99964.00;;;5.77;80.21
74958;BME280;63741;42.624;26.276;2023-03-03T04:47:40;99961.38;;;5.77;79.22
74958;BME280;63741;42.624;26.276;2023-03-03T04:50:09;99961.22;;;5.80;79.19
74958;BME280;63741;42.624;26.276;2023-03-03T04:52:37;99965.44;;;5.83;78.40
74958;BME280;63741;42.624;26.276;2023-03-03T04:55:06;99961.88;;;5.84;78.97
74958;BME280;63741;42.624;26.276;2023-03-03T04:57:37;99968.84;;;5.85;79.54
74958;BME280;63741;42.624;26.276;2023-03-03T05:00:05;99966.69;;;5.76;79.75
74958;BME280;63741;42.624;26.276;2023-03-03T05:02:32;99966.69;;;5.76;80.40
74958;BME280;63741;42.624;26.276;2023-03-03T05:04:59;99968.56;;;5.74;80.14
74958;BME280;63741;42.624;26.276;2023-03-03T05:07:26;99965.22;;;5.70;80.92
74958;BME280;63741;42.624;26.276;2023-03-03T05:09:53;99971.41;;;5.69;81.17
74958;BME280;63741;42.624;26.276;2023-03-03T05:12:20;99972.34;;;5.68;80.85
74958;BME280;63741;42.624;26.276;2023-03-03T05:14:47;99968.03;;;5.67;81.22
74958;BME280;63741;42.624;26.276;2023-03-03T05:17:14;99976.66;;;5.69;80.81
74958;BME280;63741;42.624;26.276;2023-03-03T05:19:41;99970.78;;;5.81;80.66
74958;BME280;63741;42.624;26.276;2023-03-03T05:22:08;99972.88;;;5.75;80.32
74958;BME280;63741;42.624;26.276;2023-03-03T05:24:35;99970.34;;;5.73;80.50
74958;BME280;63741;42.624;26.276;2023-03-03T05:27:02;99970.41;;;5.72;81.04
74958;BME280;63741;42.624;26.276;2023-03-03T05:29:30;99968.63;;;5.72;80.49
74958;BME280;63741;42.624;26.276;2023-03-03T05:31:57;99969.09;;;5.80;79.70
74958;BME280;63741;42.624;26.276;2023-03-03T05:34:24;99962.97;;;5.80;79.85
74958;BME280;63741;42.624;26.276;2023-03-03T05:36:51;99967.97;;;5.84;79.04
74958;BME280;63741;42.624;26.276;2023-03-03T05:39:18;99968.91;;;5.83;79.24
74958;BME280;63741;42.624;26.276;2023-03-03T05:41:45;99962.47;;;5.89;78.72
74958;BME280;63741;42.624;26.276;2023-03-03T05:44:12;99966.69;;;5.93;78.52
74958;BME280;63741;42.624;26.276;2023-03-03T05:46:39;99962.41;;;5.91;78.51
74958;BME280;63741;42.624;26.276;2023-03-03T05:49:06;99954.47;;;5.92;77.89
74958;BME280;63741;42.624;26.276;2023-03-03T05:51:33;99954.69;;;6.05;77.84
74958;BME280;63741;42.624;26.276;2023-03-03T05:53:59;99952.75;;;6.08;77.33
74958;BME280;63741;42.624;26.276;2023-03-03T05:56:27;99954.09;;;6.00;76.95
74958;BME280;63741;42.624;26.276;2023-03-03T05:58:54;99949.44;;;6.05;77.10
74958;BME280;63741;42.624;26.276;2023-03-03T06:01:21;99958.00;;;6.08;77.56
74958;BME280;63741;42.624;26.276;2023-03-03T06:03:48;99947.41;;;6.10;76.80
74958;BME280;63741;42.624;26.276;2023-03-03T06:06:15;99942.69;;;6.17;76.04
74958;BME280;63741;42.624;26.276;2023-03-03T06:08:44;99939.94;;;6.18;75.52
74958;BME280;63741;42.624;26.276;2023-03-03T06:11:11;99944.09;;;6.38;74.94
74958;BME280;63741;42.624;26.276;2023-03-03T06:13:39;99943.38;;;6.52;73.86
74958;BME280;63741;42.624;26.276;2023-03-03T06:16:08;99940.28;;;6.59;73.46
74958;BME280;63741;42.624;26.276;2023-03-03T06:18:35;99937.91;;;6.55;74.22
74958;BME280;63741;42.624;26.276;2023-03-03T06:21:02;99933.41;;;6.73;72.40
74958;BME280;63741;42.624;26.276;2023-03-03T06:23:29;99944.69;;;6.59;72.52
74958;BME280;63741;42.624;26.276;2023-03-03T06:25:56;99944.16;;;6.84;70.10
74958;BME280;63741;42.624;26.276;2023-03-03T06:28:23;99946.00;;;6.52;71.16
74958;BME280;63741;42.624;26.276;2023-03-03T06:30:54;99949.09;;;6.58;71.80
74958;BME280;63741;42.624;26.276;2023-03-03T06:33:22;99954.47;;;6.57;72.31
74958;BME280;63741;42.624;26.276;2023-03-03T06:35:51;99958.25;;;6.51;72.46
74958;BME280;63741;42.624;26.276;2023-03-03T06:38:19;99966.75;;;6.41;72.97
74958;BME280;63741;42.624;26.276;2023-03-03T06:40:46;99962.34;;;6.41;72.15
74958;BME280;63741;42.624;26.276;2023-03-03T06:43:13;99967.09;;;6.35;73.38
74958;BME280;63741;42.624;26.276;2023-03-03T06:45:40;99953.00;;;6.51;71.97
74958;BME280;63741;42.624;26.276;2023-03-03T06:48:09;99972.06;;;6.55;72.58
74958;BME280;63741;42.624;26.276;2023-03-03T06:50:35;99959.19;;;6.66;72.12
74958;BME280;63741;42.624;26.276;2023-03-03T06:53:13;99968.75;;;6.83;71.62
74958;BME280;63741;42.624;26.276;2023-03-03T06:55:41;99966.81;;;6.71;71.34
74958;BME280;63741;42.624;26.276;2023-03-03T06:58:15;99967.06;;;6.82;72.07
74958;BME280;63741;42.624;26.276;2023-03-03T07:00:59;99963.94;;;6.75;72.08
74958;BME280;63741;42.624;26.276;2023-03-03T07:05:55;99970.53;;;6.82;71.94
74958;BME280;63741;42.624;26.276;2023-03-03T07:08:23;99969.09;;;6.93;70.84
74958;BME280;63741;42.624;26.276;2023-03-03T07:10:51;99967.72;;;7.01;70.38
74958;BME280;63741;42.624;26.276;2023-03-03T07:13:27;99958.59;;;6.77;72.81
74958;BME280;63741;42.624;26.276;2023-03-03T07:16:10;99964.63;;;6.79;71.72
74958;BME280;63741;42.624;26.276;2023-03-03T07:18:51;99965.00;;;6.87;70.81
74958;BME280;63741;42.624;26.276;2023-03-03T07:21:33;99970.69;;;6.95;71.79
74958;BME280;63741;42.624;26.276;2023-03-03T07:24:07;99973.56;;;6.91;70.35
74958;BME280;63741;42.624;26.276;2023-03-03T07:26:39;99969.00;;;6.94;69.76
74958;BME280;63741;42.624;26.276;2023-03-03T07:29:27;99965.47;;;6.79;70.76
74958;BME280;63741;42.624;26.276;2023-03-03T07:31:57;99966.72;;;6.72;72.58
74958;BME280;63741;42.624;26.276;2023-03-03T07:34:39;99965.13;;;6.70;71.49
74958;BME280;63741;42.624;26.276;2023-03-03T07:37:16;99955.00;;;6.78;71.76
74958;BME280;63741;42.624;26.276;2023-03-03T07:39:49;99960.19;;;6.79;70.53
74958;BME280;63741;42.624;26.276;2023-03-03T07:42:21;99960.94;;;6.81;72.14
74958;BME280;63741;42.624;26.276;2023-03-03T07:44:59;99963.16;;;6.89;72.61
74958;BME280;63741;42.624;26.276;2023-03-03T07:47:35;99955.75;;;6.96;71.74
74958;BME280;63741;42.624;26.276;2023-03-03T07:50:13;99952.09;;;6.98;70.57
74958;BME280;63741;42.624;26.276;2023-03-03T07:52:44;99947.69;;;6.99;70.87
74958;BME280;63741;42.624;26.276;2023-03-03T07:55:38;99942.06;;;7.05;69.32
74958;BME280;63741;42.624;26.276;2023-03-03T08:03:14;99937.22;;;7.27;69.36
74958;BME280;63741;42.624;26.276;2023-03-03T08:05:45;99935.78;;;7.38;69.76
74958;BME280;63741;42.624;26.276;2023-03-03T08:08:29;99922.34;;;7.42;70.37
74958;BME280;63741;42.624;26.276;2023-03-03T08:10:58;99922.25;;;7.58;70.51
74958;BME280;63741;42.624;26.276;2023-03-03T08:13:36;99917.56;;;7.77;68.28
74958;BME280;63741;42.624;26.276;2023-03-03T08:18:36;99908.72;;;7.64;68.81
74958;BME280;63741;42.624;26.276;2023-03-03T08:21:15;99906.00;;;7.80;68.19
74958;BME280;63741;42.624;26.276;2023-03-03T08:23:44;99913.00;;;8.08;68.97
74958;BME280;63741;42.624;26.276;2023-03-03T08:26:11;99910.66;;;8.03;68.42
74958;BME280;63741;42.624;26.276;2023-03-03T08:28:42;99898.56;;;7.87;68.98
74958;BME280;63741;42.624;26.276;2023-03-03T08:31:09;99907.50;;;7.70;67.14
74958;BME280;63741;42.624;26.276;2023-03-03T08:33:50;99906.56;;;7.71;68.03
74958;BME280;63741;42.624;26.276;2023-03-03T08:36:18;99903.47;;;7.78;67.26
74958;BME280;63741;42.624;26.276;2023-03-03T08:38:45;99900.81;;;7.78;67.47
74958;BME280;63741;42.624;26.276;2023-03-03T08:41:12;99905.81;;;7.83;67.48
74958;BME280;63741;42.624;26.276;2023-03-03T08:43:39;99907.38;;;7.85;67.35
74958;BME280;63741;42.624;26.276;2023-03-03T08:46:06;99902.88;;;8.02;66.27
74958;BME280;63741;42.624;26.276;2023-03-03T08:48:36;99907.59;;;7.68;67.16
74958;BME280;63741;42.624;26.276;2023-03-03T08:51:03;99902.69;;;7.76;66.47
74958;BME280;63741;42.624;26.276;2023-03-03T08:53:30;99901.56;;;7.80;66.75
74958;BME280;63741;42.624;26.276;2023-03-03T08:55:59;99905.25;;;7.78;66.95
74958;BME280;63741;42.624;26.276;2023-03-03T08:58:26;99909.38;;;7.82;66.27
74958;BME280;63741;42.624;26.276;2023-03-03T09:01:01;99907.75;;;8.08;65.65
74958;BME280;63741;42.624;26.276;2023-03-03T09:03:28;99906.38;;;7.88;66.10
74958;BME280;63741;42.624;26.276;2023-03-03T09:05:55;99906.38;;;7.74;65.54
74958;BME280;63741;42.624;26.276;2023-03-03T09:08:22;99903.66;;;7.61;65.96
74958;BME280;63741;42.624;26.276;2023-03-03T09:10:49;99904.75;;;7.71;66.87
74958;BME280;63741;42.624;26.276;2023-03-03T09:13:18;99903.34;;;7.94;65.62
74958;BME280;63741;42.624;26.276;2023-03-03T09:15:46;99906.75;;;7.82;66.70
74958;BME280;63741;42.624;26.276;2023-03-03T09:18:20;99903.81;;;7.72;66.87
74958;BME280;63741;42.624;26.276;2023-03-03T09:20:52;99904.19;;;7.80;66.69
74958;BME280;63741;42.624;26.276;2023-03-03T09:31:58;99902.25;;;7.70;66.57
74958;BME280;63741;42.624;26.276;2023-03-03T09:37:00;99902.31;;;7.97;67.14
74958;BME280;63741;42.624;26.276;2023-03-03T09:39:29;99907.59;;;7.82;66.66
74958;BME280;63741;42.624;26.276;2023-03-03T09:45:07;99896.13;;;7.69;66.54
74958;BME280;63741;42.624;26.276;2023-03-03T09:59:04;99879.47;;;7.83;67.09
74958;BME280;63741;42.624;26.276;2023-03-03T10:04:37;99875.13;;;7.96;67.69
74958;BME280;63741;42.624;26.276;2023-03-03T10:12:26;99859.28;;;8.10;65.53
74958;BME280;63741;42.624;26.276;2023-03-03T10:17:52;99852.94;;;8.00;66.68
74958;BME280;63741;42.624;26.276;2023-03-03T10:20:35;99853.47;;;8.05;65.54
74958;BME280;63741;42.624;26.276;2023-03-03T10:26:09;99846.00;;;8.26;65.91
74958;BME280;63741;42.624;26.276;2023-03-03T10:32:01;99846.88;;;8.13;65.74
74958;BME280;63741;42.624;26.276;2023-03-03T10:45:43;99823.31;;;8.24;65.14
74958;BME280;63741;42.624;26.276;2023-03-03T10:54:08;99808.22;;;8.13;65.94
74958;BME280;63741;42.624;26.276;2023-03-03T11:05:18;99786.75;;;7.78;66.30
74958;BME280;63741;42.624;26.276;2023-03-03T11:07:56;99793.59;;;7.95;65.98
74958;BME280;63741;42.624;26.276;2023-03-03T11:10:47;99797.38;;;7.91;65.73
74958;BME280;63741;42.624;26.276;2023-03-03T11:32:35;99792.31;;;7.73;67.54
74958;BME280;63741;42.624;26.276;2023-03-03T11:35:18;99789.22;;;7.67;67.93
74958;BME280;63741;42.624;26.276;2023-03-03T11:40:24;99785.06;;;7.63;69.60
74958;BME280;63741;42.624;26.276;2023-03-03T11:45:39;99781.56;;;7.76;69.11
74958;BME280;63741;42.624;26.276;2023-03-03T11:48:15;99783.00;;;7.82;69.86
74958;BME280;63741;42.624;26.276;2023-03-03T11:51:18;99777.06;;;7.78;69.36
74958;BME280;63741;42.624;26.276;2023-03-03T11:59:23;99779.28;;;7.84;71.11
74958;BME280;63741;42.624;26.276;2023-03-03T12:02:08;99784.00;;;7.79;70.88
74958;BME280;63741;42.624;26.276;2023-03-03T12:05:05;99780.44;;;7.80;71.10
74958;BME280;63741;42.624;26.276;2023-03-03T12:10:28;99785.03;;;7.91;73.12
74958;BME280;63741;42.624;26.276;2023-03-03T12:13:04;99788.03;;;7.99;73.25
74958;BME280;63741;42.624;26.276;2023-03-03T12:26:57;99786.81;;;7.91;75.11
74958;BME280;63741;42.624;26.276;2023-03-03T12:35:15;99782.03;;;7.83;73.24
74958;BME280;63741;42.624;26.276;2023-03-03T12:40:32;99780.97;;;8.00;70.73
74958;BME280;63741;42.624;26.276;2023-03-03T12:43:15;99781.84;;;7.86;71.89
74958;BME280;63741;42.624;26.276;2023-03-03T12:46:38;99788.84;;;7.73;73.61
74958;BME280;63741;42.624;26.276;2023-03-03T12:48:56;99777.97;;;7.92;71.93
74958;BME280;63741;42.624;26.276;2023-03-03T12:56:53;99773.66;;;7.91;70.50
74958;BME280;63741;42.624;26.276;2023-03-03T13:08:24;99770.03;;;8.06;68.17
74958;BME280;63741;42.624;26.276;2023-03-03T13:11:07;99769.16;;;7.78;70.14
74958;BME280;63741;42.624;26.276;2023-03-03T13:13:49;99775.19;;;7.66;70.70
74958;BME280;63741;42.624;26.276;2023-03-03T13:16:28;99773.91;;;7.45;71.40
74958;BME280;63741;42.624;26.276;2023-03-03T13:19:11;99778.16;;;7.89;70.73
74958;BME280;63741;42.624;26.276;2023-03-03T13:21:54;99768.56;;;7.88;69.54
74958;BME280;63741;42.624;26.276;2023-03-03T13:24:31;99778.94;;;7.76;70.61
74958;BME280;63741;42.624;26.276;2023-03-03T13:27:11;99770.50;;;7.98;69.35
74958;BME280;63741;42.624;26.276;2023-03-03T13:32:22;99768.44;;;7.62;72.32
74958;BME280;63741;42.624;26.276;2023-03-03T13:35:09;99758.56;;;7.66;70.11
74958;BME280;63741;42.624;26.276;2023-03-03T13:37:46;99758.84;;;7.61;71.41
74958;BME280;63741;42.624;26.276;2023-03-03T13:40:20;99756.22;;;7.61;69.83
74958;BME280;63741;42.624;26.276;2023-03-03T13:43:07;99762.72;;;7.55;70.69
74958;BME280;63741;42.624;26.276;2023-03-03T13:45:59;99761.59;;;7.45;70.85
74958;BME280;63741;42.624;26.276;2023-03-03T13:49:17;99757.00;;;7.49;69.53
74958;BME280;63741;42.624;26.276;2023-03-03T13:57:22;99750.03;;;7.48;69.45
74958;BME280;63741;42.624;26.276;2023-03-03T14:05:33;99740.38;;;7.34;70.04
74958;BME280;63741;42.624;26.276;2023-03-03T14:16:42;99734.00;;;7.38;69.83
74958;BME280;63741;42.624;26.276;2023-03-03T14:19:51;99733.59;;;7.44;69.56
74958;BME280;63741;42.624;26.276;2023-03-03T14:25:12;99738.56;;;7.49;70.08
74958;BME280;63741;42.624;26.276;2023-03-03T14:27:57;99739.34;;;7.51;68.69
74958;BME280;63741;42.624;26.276;2023-03-03T14:30:28;99732.16;;;7.53;68.01
74958;BME280;63741;42.624;26.276;2023-03-03T14:35:47;99742.34;;;7.59;70.52
74958;BME280;63741;42.624;26.276;2023-03-03T14:41:37;99732.16;;;7.53;72.98
74958;BME280;63741;42.624;26.276;2023-03-03T14:44:28;99735.16;;;7.61;73.04
74958;BME280;63741;42.624;26.276;2023-03-03T14:47:16;99728.28;;;7.58;73.96
74958;BME280;63741;42.624;26.276;2023-03-03T14:49:45;99714.16;;;7.47;73.86
74958;BME280;63741;42.624;26.276;2023-03-03T14:54:48;99718.34;;;7.49;72.15
74958;BME280;63741;42.624;26.276;2023-03-03T14:57:49;99720.38;;;7.46;70.89
74958;BME280;63741;42.624;26.276;2023-03-03T15:02:43;99730.03;;;7.31;71.64
74958;BME280;63741;42.624;26.276;2023-03-03T15:05:18;99726.56;;;7.30;72.36
74958;BME280;63741;42.624;26.276;2023-03-03T15:07:52;99717.53;;;7.34;70.50
74958;BME280;63741;42.624;26.276;2023-03-03T15:10:29;99721.19;;;7.32;72.12
74958;BME280;63741;42.624;26.276;2023-03-03T15:12:57;99726.19;;;7.22;71.42
74958;BME280;63741;42.624;26.276;2023-03-03T15:15:25;99728.00;;;7.22;71.21
74958;BME280;63741;42.624;26.276;2023-03-03T15:17:55;99730.25;;;7.28;70.78
74958;BME280;63741;42.624;26.276;2023-03-03T15:20:41;99743.50;;;7.12;72.97
74958;BME280;63741;42.624;26.276;2023-03-03T15:34:41;99738.97;;;7.00;73.31
74958;BME280;63741;42.624;26.276;2023-03-03T15:42:37;99741.91;;;6.95;73.64
74958;BME280;63741;42.624;26.276;2023-03-03T15:45:31;99742.94;;;6.93;72.84
74958;BME280;63741;42.624;26.276;2023-03-03T15:48:28;99742.00;;;6.94;73.47
74958;BME280;63741;42.624;26.276;2023-03-03T15:56:36;99743.13;;;6.90;74.22
74958;BME280;63741;42.624;26.276;2023-03-03T16:04:23;99744.78;;;6.76;75.11
74958;BME280;63741;42.624;26.276;2023-03-03T16:15:33;99768.41;;;6.48;77.59
74958;BME280;63741;42.624;26.276;2023-03-03T16:18:12;99769.44;;;6.59;78.74
74958;BME280;63741;42.624;26.276;2023-03-03T16:32:12;99787.22;;;6.70;78.88
74958;BME280;63741;42.624;26.276;2023-03-03T16:34:58;99794.00;;;6.74;79.21
74958;BME280;63741;42.624;26.276;2023-03-03T16:37:35;99792.97;;;6.77;79.55
74958;BME280;63741;42.624;26.276;2023-03-03T16:40:22;99800.56;;;6.67;79.79
74958;BME280;63741;42.624;26.276;2023-03-03T16:43:24;99799.19;;;6.60;79.77
74958;BME280;63741;42.624;26.276;2023-03-03T16:46:37;99812.53;;;6.57;79.91
74958;BME280;63741;42.624;26.276;2023-03-03T16:51:46;99815.66;;;6.64;79.95
74958;BME280;63741;42.624;26.276;2023-03-03T16:54:35;99815.47;;;6.67;80.35
74958;BME280;63741;42.624;26.276;2023-03-03T17:00:59;99825.31;;;6.63;79.42
74958;BME280;63741;42.624;26.276;2023-03-03T17:03:32;99822.47;;;6.52;79.48
74958;BME280;63741;42.624;26.276;2023-03-03T17:06:29;99821.53;;;6.53;79.61
74958;BME280;63741;42.624;26.276;2023-03-03T17:09:14;99819.19;;;6.48;81.49
74958;BME280;63741;42.624;26.276;2023-03-03T17:25:45;99820.44;;;6.57;80.50
74958;BME280;63741;42.624;26.276;2023-03-03T17:39:33;99842.97;;;6.61;81.01
74958;BME280;63741;42.624;26.276;2023-03-03T17:42:17;99837.88;;;6.58;81.60
74958;BME280;63741;42.624;26.276;2023-03-03T17:52:53;99852.28;;;6.67;80.29
74958;BME280;63741;42.624;26.276;2023-03-03T17:58:32;99843.03;;;6.59;80.26
74958;BME280;63741;42.624;26.276;2023-03-03T18:04:08;99846.44;;;6.62;80.13
74958;BME280;63741;42.624;26.276;2023-03-03T18:17:33;99854.75;;;6.54;81.19
74958;BME280;63741;42.624;26.276;2023-03-03T18:20:20;99859.16;;;6.53;80.87
74958;BME280;63741;42.624;26.276;2023-03-03T18:22:52;99862.13;;;6.47;80.93
74958;BME280;63741;42.624;26.276;2023-03-03T18:25:24;99877.56;;;6.53;81.50
74958;BME280;63741;42.624;26.276;2023-03-03T18:30:29;99875.09;;;6.50;81.81
74958;BME280;63741;42.624;26.276;2023-03-03T18:33:06;99869.94;;;6.49;82.31
74958;BME280;63741;42.624;26.276;2023-03-03T18:35:39;99875.03;;;6.52;81.23
74958;BME280;63741;42.624;26.276;2023-03-03T18:38:26;99874.34;;;6.48;81.66
74958;BME280;63741;42.624;26.276;2023-03-03T18:40:59;99874.53;;;6.45;82.65